createdAt,value
2019-02-19T00:01:51.207Z,277.30
2019-02-19T00:06:54.625Z,142.53
2019-02-19T00:11:57.911Z,164.23
2019-02-19T00:17:01.607Z,149.30
2019-02-19T00:22:05.593Z,213.73
2019-02-19T00:27:08.914Z,232.60
2019-02-19T00:32:12.217Z,305.23
2019-02-19T00:37:15.913Z,379.83
2019-02-19T00:42:19.211Z,160.33
2019-02-19T00:47:22.917Z,176.80
2019-02-19T00:52:26.465Z,249.57
2019-02-19T00:57:30.165Z,272.97
2019-02-19T01:02:33.629Z,383.10
2019-02-19T01:07:37.706Z,420.97
2019-02-19T01:12:41.012Z,343.47
2019-02-19T01:17:44.265Z,350.97
2019-02-19T01:22:47.543Z,317.00
2019-02-19T01:27:51.507Z,355.30
2019-02-19T01:32:55.199Z,362.53
2019-02-19T01:37:58.491Z,292.77
2019-02-19T01:43:01.758Z,276.20
2019-02-19T01:48:05.310Z,386.03
2019-02-19T01:53:08.895Z,360.33
2019-02-19T01:58:12.168Z,448.37
2019-02-19T02:03:16.038Z,558.77
2019-02-19T02:08:19.997Z,598.63
2019-02-19T02:13:23.533Z,474.10
2019-02-19T02:18:27.466Z,394.87
2019-02-19T02:23:31.150Z,418.63
2019-02-19T02:28:34.671Z,472.83
2019-02-19T02:33:38.204Z,477.63
2019-02-19T02:38:41.465Z,484.77
2019-02-19T02:43:45.343Z,378.03
2019-02-19T02:48:48.605Z,329.83
2019-02-19T02:53:51.869Z,398.43
2019-02-19T02:58:55.558Z,413.70
2019-02-19T03:03:58.942Z,348.90
2019-02-19T03:09:02.210Z,353.63
2019-02-19T03:14:05.920Z,399.10
2019-02-19T03:19:09.208Z,450.87
2019-02-19T03:24:12.510Z,326.77
2019-02-19T03:29:16.210Z,190.20
2019-02-19T03:34:20.010Z,236.47
2019-02-19T03:39:23.370Z,218.40
2019-02-19T03:44:27.098Z,249.60
2019-02-19T03:49:30.798Z,266.50
2019-02-19T03:54:34.355Z,194.13
2019-02-19T03:59:38.174Z,451.67
2019-02-19T04:04:41.827Z,192.80
2019-02-19T04:09:45.643Z,184.37
2019-02-19T04:14:48.935Z,167.73
2019-02-19T04:19:52.247Z,184.73
2019-02-19T04:24:55.553Z,179.83
2019-02-19T04:29:59.509Z,194.00
2019-02-19T04:35:02.858Z,156.13
2019-02-19T04:40:06.283Z,249.83
2019-02-19T04:45:09.662Z,171.97
2019-02-19T04:50:13.203Z,169.90
2019-02-19T04:55:16.593Z,247.37
2019-02-19T05:00:20.515Z,198.70
2019-02-19T05:05:24.186Z,163.07
2019-02-19T05:10:27.718Z,194.90
2019-02-19T05:15:30.994Z,163.40
2019-02-19T05:20:34.265Z,190.47
2019-02-19T05:25:37.538Z,152.27
2019-02-19T05:30:42.975Z,165.23
2019-02-19T05:35:45.826Z,162.63
2019-02-19T05:40:49.674Z,171.03
2019-02-19T05:45:53.711Z,154.13
2019-02-19T05:50:57.374Z,192.73
2019-02-19T05:56:01.045Z,161.30
2019-02-19T06:01:04.675Z,209.93
2019-02-19T06:06:08.314Z,188.37
2019-02-19T06:11:11.610Z,357.20
2019-02-19T06:16:14.968Z,475.10
2019-02-19T06:21:18.342Z,221.03
2019-02-19T06:26:21.646Z,165.97
2019-02-19T06:31:25.034Z,237.27
2019-02-19T06:36:28.334Z,198.30
2019-02-19T06:41:31.630Z,351.80
2019-02-19T06:46:34.955Z,826.80
2019-02-19T06:51:38.309Z,323.03
2019-02-19T06:56:41.606Z,316.47
2019-02-19T07:02:10.579Z,248.93
2019-02-19T07:07:13.861Z,826.73
2019-02-19T07:12:17.802Z,464.37
2019-02-19T07:17:21.347Z,328.37
2019-02-19T07:22:24.634Z,303.40
2019-02-19T07:27:27.954Z,452.50
2019-02-19T07:32:31.241Z,327.70
2019-02-19T07:37:34.506Z,761.00
2019-02-19T07:42:37.902Z,588.90
2019-02-19T07:47:41.275Z,780.40
2019-02-19T07:52:44.573Z,477.30
2019-02-19T07:57:47.870Z,825.73
2019-02-19T08:02:51.176Z,983.77
2019-02-19T08:07:54.970Z,1033.57
2019-02-19T08:12:58.262Z,1236.73
2019-02-19T08:18:01.557Z,1201.40
2019-02-19T08:23:04.870Z,1717.83
2019-02-19T08:28:08.149Z,1374.13
2019-02-19T08:33:11.838Z,1805.40
2019-02-19T08:38:15.391Z,1999.90
2019-02-19T08:43:18.745Z,1517.67
2019-02-19T08:48:22.046Z,1744.67
2019-02-19T08:53:25.740Z,1999.90
2019-02-19T08:58:29.014Z,1999.90
2019-02-19T09:03:32.303Z,1999.90
2019-02-19T09:08:35.986Z,1953.73
2019-02-19T09:13:39.507Z,1999.90
2019-02-19T09:18:42.786Z,1999.90
2019-02-19T09:23:46.073Z,1999.90
2019-02-19T09:28:49.347Z,1999.90
2019-02-19T09:33:52.894Z,1999.90
2019-02-19T09:38:56.183Z,1999.90
2019-02-19T09:43:59.754Z,1999.90
2019-02-19T09:49:03.448Z,1999.90
2019-02-19T09:54:06.971Z,1999.90
2019-02-19T09:59:10.259Z,1999.90
2019-02-19T10:04:13.542Z,1999.90
2019-02-19T10:09:16.836Z,1999.90
2019-02-19T10:14:20.123Z,1999.90
2019-02-19T10:19:23.414Z,1999.90
2019-02-19T10:24:26.695Z,1999.90
2019-02-19T10:29:30.766Z,1999.90
2019-02-19T10:34:34.706Z,1999.90
2019-02-19T10:39:37.992Z,1999.90
2019-02-19T10:44:41.290Z,1999.90
2019-02-19T10:49:45.025Z,1999.90
2019-02-19T10:54:48.317Z,1999.90
2019-02-19T10:59:51.850Z,1999.90
2019-02-19T11:04:55.143Z,1999.90
2019-02-19T11:09:59.243Z,1999.90
2019-02-19T11:15:06.436Z,1999.90
2019-02-19T11:20:10.258Z,1999.90
2019-02-19T11:25:14.277Z,1999.90
2019-02-19T11:30:17.566Z,1999.90
2019-02-19T11:35:20.847Z,1999.90
2019-02-19T11:40:24.563Z,1999.90
2019-02-19T11:45:28.266Z,1999.90
2019-02-19T11:50:32.069Z,1999.90
2019-02-19T11:55:35.398Z,1999.90
2019-02-19T12:00:40.107Z,1999.90
2019-02-19T12:05:43.390Z,1999.90
2019-02-19T12:10:46.675Z,1999.90
2019-02-19T12:15:49.950Z,1999.90
2019-02-19T12:20:53.226Z,1999.90
2019-02-19T12:25:56.503Z,1999.90
2019-02-19T12:30:59.792Z,1999.90
2019-02-19T12:36:03.069Z,1999.90
2019-02-19T12:41:06.350Z,1999.90
2019-02-19T12:46:09.642Z,1999.90
2019-02-19T12:51:13.156Z,1999.90
2019-02-19T12:56:16.434Z,1999.90
2019-02-19T13:01:19.705Z,1999.90
2019-02-19T13:06:23.410Z,1999.90
2019-02-19T13:11:26.703Z,1999.90
2019-02-19T13:16:29.982Z,1999.90
2019-02-19T13:21:33.915Z,1999.90
2019-02-19T13:26:37.467Z,1999.90
2019-02-19T13:31:41.151Z,1999.90
2019-02-19T13:36:45.086Z,1999.90
2019-02-19T13:41:48.791Z,1999.90
2019-02-19T13:46:52.099Z,1999.90
2019-02-19T13:51:58.258Z,1999.90
2019-02-19T13:57:01.631Z,1999.90
2019-02-19T14:02:04.907Z,1999.90
2019-02-19T14:07:08.519Z,1999.90
2019-02-19T14:12:11.803Z,1999.90
2019-02-19T14:17:17.847Z,1999.90
2019-02-19T14:22:41.760Z,1999.90
2019-02-19T14:27:58.837Z,1999.90
2019-02-19T14:33:39.358Z,1999.90
2019-02-19T14:38:53.833Z,1999.90
2019-02-19T14:44:16.258Z,1999.90
2019-02-19T14:49:47.016Z,1999.90
2019-02-19T14:55:01.584Z,1999.90
2019-02-19T15:00:27.358Z,1999.90
2019-02-19T15:05:48.526Z,1999.90
2019-02-19T15:11:06.343Z,1999.90
2019-02-19T15:16:35.612Z,1999.90
2019-02-19T15:21:55.154Z,1999.90
2019-02-19T15:27:11.050Z,1999.90
2019-02-19T15:32:29.735Z,1999.90
2019-02-19T15:37:52.922Z,1056.80
2019-02-19T15:43:04.602Z,1389.97
2019-02-19T15:48:36.766Z,1093.10
2019-02-19T15:54:02.226Z,998.60
2019-02-19T15:59:17.094Z,1362.60
2019-02-19T16:04:45.726Z,1909.13
2019-02-19T16:09:55.163Z,1386.37
2019-02-19T16:15:35.632Z,1350.40
2019-02-19T16:20:46.022Z,1156.50
2019-02-19T16:26:00.934Z,1957.10
2019-02-19T16:31:32.921Z,1999.90
2019-02-19T16:36:53.136Z,1404.87
2019-02-19T16:42:07.332Z,1563.37
2019-02-19T16:47:22.603Z,1813.23
2019-02-19T16:52:30.866Z,1522.17
2019-02-19T16:57:42.430Z,1988.00
2019-02-19T17:02:53.244Z,1148.53
2019-02-19T17:08:01.865Z,1999.90
2019-02-19T17:13:17.817Z,1522.87
2019-02-19T17:18:29.440Z,1141.40
2019-02-19T17:23:40.982Z,1999.90
2019-02-19T17:29:02.516Z,1718.10
2019-02-19T17:34:24.137Z,1690.17
2019-02-19T17:39:32.916Z,1535.27
2019-02-19T17:44:54.708Z,1658.03
2019-02-19T17:50:11.746Z,1999.90
2019-02-19T17:55:27.847Z,1567.70
2019-02-19T18:00:37.932Z,1788.90
2019-02-19T18:05:59.206Z,1999.90
2019-02-19T18:11:11.399Z,1999.90
2019-02-19T18:16:23.010Z,1999.90
2019-02-19T18:21:26.313Z,1999.90
2019-02-19T18:26:29.860Z,1999.90
2019-02-19T18:31:33.835Z,1999.90
2019-02-19T18:36:37.444Z,1999.90
2019-02-19T18:41:41.222Z,1999.90
2019-02-19T18:46:44.530Z,1999.90
2019-02-19T18:51:48.159Z,1999.90
2019-02-19T18:56:51.486Z,1999.90
2019-02-19T19:01:55.071Z,1999.90
2019-02-19T19:06:58.379Z,1999.90
2019-02-19T19:12:01.727Z,1999.90
2019-02-19T19:17:05.768Z,1999.90
2019-02-19T19:22:09.639Z,1999.90
2019-02-19T19:27:12.949Z,1999.90
2019-02-19T19:32:16.647Z,1586.50
2019-02-19T19:37:19.991Z,1660.10
2019-02-19T19:42:23.287Z,1643.73
2019-02-19T19:47:26.581Z,1466.13
2019-02-19T19:52:29.867Z,1894.00
2019-02-19T19:57:33.571Z,1810.27
2019-02-19T20:02:36.856Z,1986.47
2019-02-19T20:07:40.143Z,1967.20
2019-02-19T20:12:43.698Z,1739.53
2019-02-19T20:17:47.434Z,1754.17
2019-02-19T20:22:51.039Z,1707.13
2019-02-19T20:27:54.642Z,1763.63
2019-02-19T20:32:58.708Z,1702.07
2019-02-19T20:38:02.107Z,1756.70
2019-02-19T20:43:05.768Z,1822.23
2019-02-19T20:48:09.133Z,1843.37
2019-02-19T20:53:12.791Z,1780.60
2019-02-19T20:58:16.091Z,1717.90
2019-02-19T21:03:19.506Z,1394.13
2019-02-19T21:08:23.588Z,1999.90
2019-02-19T21:13:27.019Z,1708.83
2019-02-19T21:18:31.429Z,1973.47
2019-02-19T21:23:34.963Z,1973.27
2019-02-19T21:28:38.358Z,1782.20
2019-02-19T21:33:41.770Z,1982.97
2019-02-19T21:38:45.567Z,1709.90
2019-02-19T21:43:48.858Z,1682.47
2019-02-19T21:48:52.418Z,1959.97
2019-02-19T21:53:55.832Z,1662.87
2019-02-19T21:58:59.123Z,1973.17
2019-02-19T22:04:02.464Z,1994.33
2019-02-19T22:09:06.258Z,1452.47
2019-02-19T22:14:09.559Z,1838.90
2019-02-19T22:19:12.899Z,1680.40
2019-02-19T22:24:34.171Z,1952.30
2019-02-19T22:29:38.194Z,1751.53
2019-02-19T22:34:42.874Z,1660.63
2019-02-19T22:39:47.416Z,1999.90
2019-02-19T22:44:51.458Z,1947.67
2019-02-19T22:49:55.030Z,1999.90
2019-02-19T22:55:26.353Z,1648.87
2019-02-19T23:00:58.393Z,1881.47
2019-02-19T23:06:02.454Z,1809.33
2019-02-19T23:11:06.392Z,1561.17
2019-02-19T23:16:09.678Z,1961.70
2019-02-19T23:21:12.947Z,1973.90
2019-02-19T23:26:16.235Z,1899.57
2019-02-19T23:31:19.517Z,1817.50
2019-02-19T23:36:30.661Z,1599.93
2019-02-19T23:41:33.966Z,1608.33
2019-02-19T23:46:37.922Z,1529.43
2019-02-19T23:51:41.869Z,1901.30
2019-02-19T23:56:45.227Z,1687.97
